Latest Weather Observations for Kalumburu

IDD60801

Issued at 10:35 pm CST Tuesday 16 September 2014 (issued every 30 minutes, with the page automatically refreshed every 10 minutes)

About weather observations | Map of weather stations | Latest weather observations for NT | Other Formats
Station Details ID: 001019 Name: KALUMBURU Lat: -14.30 Lon: 126.65 Height: 23.0 m
Data from the previous 72 hours. | See also: Recent months at Kalumburu
Date/Time
CST
Temp
°C
App
Temp
°C
Dew
Point
Rel
Hum
%
Delta-T
°C
Wind Press
QNH
hPa
Press
MSL
hPa
Rain
since 9 am
mm
Dir
 
Spd
km/h
Gust
km/h
Spd
kts
Gust
kts
16/10:30pm 22.0 25.2 18.8 82 2.0 WSW 0 0 0 0 1013.7 1013.5 0.0
16/10:00pm 23.3 26.2 19.0 77 2.7 NW 2 6 1 3 1013.4 1013.2 0.0
16/09:30pm 24.2 26.5 19.5 75 3.0 NW 6 9 3 5 1013.2 1013.0 0.0
16/09:00pm 24.9 27.1 19.5 72 3.5 NNW 7 9 4 5 1012.9 1012.7 0.0
16/08:30pm 25.4 27.3 19.8 71 3.6 NNW 9 13 5 7 1012.5 1012.3 0.0
16/08:00pm 25.8 27.8 19.9 70 3.8 NNW 9 15 5 8 1012.4 1012.2 0.0
16/07:30pm 26.0 27.4 20.3 71 3.7 NNW 13 20 7 11 1012.0 1011.8 0.0
16/07:00pm 26.2 27.1 20.1 69 4.0 NNW 15 22 8 12 1011.5 1011.3 0.0
16/06:30pm 26.9 27.3 19.8 65 4.6 N 17 22 9 12 1011.2 1011.0 0.0
16/06:00pm 27.6 27.6 19.7 62 5.1 NNW 19 28 10 15 1010.8 1010.6 0.0
16/05:30pm 28.5 28.0 19.1 56 6.1 NNW 20 28 11 15 1010.6 1010.4 0.0
16/05:00pm 29.0 27.5 16.2 46 7.9 NNW 19 26 10 14 1010.4 1010.2 0.0
16/04:30pm 30.3 28.2 15.2 40 9.3 N 20 30 11 16 1010.3 1010.1 0.0
16/04:00pm 30.6 27.6 14.7 38 9.7 N 24 33 13 18 1010.3 1010.1 0.0
16/03:30pm 30.5 29.4 18.6 49 7.7 NNW 22 32 12 17 1010.3 1010.1 0.0
16/03:00pm 30.8 30.0 19.2 50 7.6 NNW 22 33 12 18 1010.6 1010.4 0.0
16/02:30pm 31.0 29.4 18.4 47 8.1 N 24 32 13 17 1010.8 1010.6 0.0
16/02:00pm 30.9 29.7 19.3 50 7.6 NNW 24 32 13 17 1011.3 1011.1 0.0
16/01:30pm 31.6 30.6 18.9 47 8.3 NNW 22 32 12 17 1011.7 1011.5 0.0
16/01:00pm 32.6 31.6 18.0 41 9.4 NNW 20 30 11 16 1012.1 1011.9 0.0
16/12:30pm 32.9 32.2 15.4 35 10.9 NNW 13 24 7 13 1012.4 1012.2 0.0
16/12:00pm 32.6 31.3 11.2 27 12.5 NNW 9 13 5 7 1012.9 1012.7 0.0
16/11:30am 31.4 31.1 12.7 32 11.1 W 6 9 3 5 1013.1 1012.9 0.0
16/11:00am 30.1 30.7 15.8 42 8.9 N 7 11 4 6 1013.4 1013.2 0.0
16/10:30am 28.6 29.2 16.8 48 7.4 S 9 13 5 7 1013.7 1013.5 0.0
16/10:00am 27.0 28.5 18.0 58 5.7 S 7 15 4 8 1013.6 1013.4 0.0
16/09:30am 25.5 27.8 19.9 71 3.6 S 7 11 4 6 1013.6 1013.4 0.0
16/09:00am 23.4 25.9 19.8 80 2.3 S 6 7 3 4 1013.5 1013.3 0.0
16/08:30am 21.8 25.1 19.9 89 1.2 S 2 6 1 3 1013.4 1013.2 0.0
16/08:00am 19.8 22.1 18.5 92 0.8 S 4 6 2 3 1013.1 1012.9 0.0
16/07:30am 16.9 18.7 15.4 91 0.9 CALM 0 0 0 0 1012.7 1012.5 0.0
16/07:00am 16.2 17.7 14.6 90 0.9 CALM 0 0 0 0 1012.4 1012.2 0.0
16/06:30am 16.9 18.6 15.2 90 1.0 CALM 0 0 0 0 1012.1 1011.9 0.0
16/06:00am 17.3 19.1 15.6 90 1.0 CALM 0 0 0 0 1011.9 1011.7 0.0
16/05:30am 17.3 19.1 15.6 90 1.0 CALM 0 0 0 0 1011.7 1011.5 0.0
16/05:00am 17.4 19.3 15.7 90 1.0 CALM 0 0 0 0 1011.5 1011.3 0.0
16/04:30am 17.8 19.8 16.1 90 1.0 CALM 0 0 0 0 1011.3 1011.1 0.0
16/04:00am 18.3 20.5 16.6 90 1.0 CALM 0 0 0 0 1011.2 1011.0 0.0
16/03:30am 17.9 19.9 15.9 88 1.2 CALM 0 0 0 0 1011.3 1011.1 0.0
16/03:00am 18.5 20.8 16.8 90 1.0 CALM 0 0 0 0 1011.5 1011.3 0.0
16/02:30am 18.5 20.8 16.7 89 1.1 ESE 0 0 0 0 1011.6 1011.4 0.0
16/02:00am 18.9 21.3 16.9 88 1.2 CALM 0 0 0 0 1011.9 1011.7 0.0
16/01:30am 19.2 20.9 17.2 88 1.2 E 4 6 2 3 1012.1 1011.9 0.0
16/01:00am 19.3 21.8 17.3 88 1.2 CALM 0 0 0 0 1012.4 1012.2 0.0
16/12:30am 19.5 21.9 17.1 86 1.5 CALM 0 0 0 0 1012.7 1012.5 0.0
16/12:00am 19.8 22.3 17.2 85 1.6 CALM 0 0 0 0 1012.8 1012.6 0.0
 
Date/Time
CST
Temp
°C
App
Temp
°C
Dew
Point
Rel
Hum
%
Delta-T
°C
Wind Press
QNH
hPa
Press
MSL
hPa
Rain
since 9 am
mm
Dir
 
Spd
km/h
Gust
km/h
Spd
kts
Gust
kts
15/11:30pm 20.2 22.8 17.6 85 1.6 CALM 0 0 0 0 1012.8 1012.6 0.0
15/11:00pm 20.7 23.5 17.9 84 1.7 CALM 0 0 0 0 1012.9 1012.7 0.0
15/10:30pm 21.4 24.2 18.0 81 2.1 CALM 0 0 0 0 1013.0 1012.8 0.0
15/10:00pm 22.2 25.1 18.2 78 2.5 CALM 0 0 0 0 1012.9 1012.7 0.0
15/09:30pm 22.8 25.7 18.3 76 2.8 CALM 0 6 0 3 1012.8 1012.6 0.0
15/09:00pm 24.0 25.8 18.2 70 3.6 N 6 7 3 4 1012.4 1012.2 0.0
15/08:30pm 25.7 27.1 18.6 65 4.5 N 9 13 5 7 1012.0 1011.8 0.0
15/08:00pm 26.3 27.3 19.4 66 4.5 N 13 17 7 9 1011.5 1011.3 0.0
15/07:30pm 26.5 27.2 18.9 63 4.9 N 13 17 7 9 1011.3 1011.1 0.0
15/07:00pm 27.2 27.8 18.5 59 5.6 N 13 20 7 11 1010.8 1010.6 0.0
15/06:30pm 27.7 27.1 17.5 53 6.4 NNW 17 24 9 13 1010.4 1010.2 0.0
15/06:00pm 29.2 29.8 18.6 52 6.8 N 13 20 7 11 1010.1 1009.9 0.0
15/05:30pm 30.6 29.0 15.1 39 9.5 N 17 24 9 13 1009.8 1009.6 0.0
15/05:00pm 31.1 27.8 11.5 30 11.4 N 20 30 11 16 1009.8 1009.6 0.0
15/04:30pm 31.8 29.1 13.5 32 11.0 N 20 32 11 17 1009.8 1009.6 0.0
15/04:00pm 31.6 28.2 13.8 34 10.8 N 24 33 13 18 1009.8 1009.6 0.0
15/03:30pm 32.2 28.1 13.9 33 11.1 N 28 37 15 20 1010.0 1009.8 0.0
15/03:00pm 34.0 31.2 9.9 23 13.9 N 15 32 8 17 1010.1 1009.9 0.0
15/02:30pm 36.7 32.1 -1.3 9 18.6 ENE 13 20 7 11 1010.3 1010.1 0.0
15/02:00pm 36.3 31.4 -0.2 10 18.1 ESE 15 30 8 16 1010.7 1010.5 0.0
15/01:30pm 36.0 31.1 -0.4 10 18.0 ENE 15 28 8 15 1011.3 1011.1 0.0
15/01:00pm 35.9 30.8 0.9 11 17.6 NE 17 30 9 16 1011.7 1011.5 0.0
15/12:30pm 34.8 30.9 3.4 14 16.4 ESE 13 24 7 13 1012.5 1012.3 0.0
15/12:00pm 34.2 30.2 2.9 14 16.1 ESE 13 26 7 14 1013.1 1012.9 0.0
15/11:30am 34.0 31.6 8.6 21 14.3 S 11 17 6 9 1013.6 1013.4 0.0
15/11:00am 32.1 30.5 10.2 26 12.5 S 9 15 5 8 1014.0 1013.8 0.0
15/10:30am 30.1 29.5 13.4 36 10.0 S 9 13 5 7 1014.4 1014.2 -
15/10:00am 28.4 28.8 15.3 45 8.0 S 7 11 4 6 1014.5 1014.3 -
15/09:30am 25.9 27.5 17.8 61 5.1 S 6 9 3 5 1014.5 1014.3 -
15/09:00am 23.2 24.8 18.3 74 3.1 S 7 9 4 5 1014.4 1014.2 -
15/08:30am 21.4 24.0 19.3 88 1.3 SSW 4 9 2 5 1014.3 1014.1 -
15/08:00am 18.8 21.4 17.5 92 0.8 CALM 0 0 0 0 1014.0 1013.8 -
15/07:30am 16.5 18.1 15.0 91 0.9 CALM 0 0 0 0 1013.5 1013.3 -
15/07:00am 16.3 17.8 14.7 90 0.9 CALM 0 0 0 0 1013.2 1013.0 -
15/06:30am 17.1 18.9 15.6 91 0.9 CALM 0 0 0 0 1012.9 1012.7 -
15/06:00am 17.1 18.9 15.6 91 0.9 CALM 0 0 0 0 1012.5 1012.3 -
15/05:30am 16.6 17.8 15.0 90 0.9 SSE 2 7 1 4 1012.2 1012.0 -
15/05:00am 17.5 19.4 15.8 90 1.0 CALM 0 0 0 0 1011.7 1011.5 -
15/04:30am 18.1 20.3 16.4 90 1.0 CALM 0 0 0 0 1011.5 1011.3 0.0
15/04:00am 18.3 20.5 16.6 90 1.0 CALM 0 0 0 0 1011.5 1011.3 -
15/03:30am 19.1 21.7 17.4 90 1.0 CALM 0 0 0 0 1011.4 1011.2 -
15/03:00am 18.9 21.4 17.2 90 1.0 CALM 0 0 0 0 1011.7 1011.5 -
15/02:30am 18.8 21.2 16.9 89 1.1 CALM 0 0 0 0 1011.8 1011.6 -
15/02:00am 19.8 22.7 18.1 90 1.1 CALM 0 0 0 0 1011.8 1011.6 -
15/01:30am 19.6 22.2 17.4 87 1.3 CALM 0 0 0 0 1012.0 1011.8 -
15/01:00am 20.0 22.7 17.8 87 1.4 CALM 0 0 0 0 1012.4 1012.2 -
15/12:30am 20.6 23.5 18.2 86 1.5 CALM 0 0 0 0 1012.6 1012.4 -
15/12:00am 21.3 24.3 18.5 84 1.8 CALM 0 0 0 0 1012.8 1012.6 -
 
Date/Time
CST
Temp
°C
App
Temp
°C
Dew
Point
Rel
Hum
%
Delta-T
°C
Wind Press
QNH
hPa
Press
MSL
hPa
Rain
since 9 am
mm
Dir
 
Spd
km/h
Gust
km/h
Spd
kts
Gust
kts
14/11:30pm 22.5 25.4 19.1 81 2.2 WSW 2 6 1 3 1013.0 1012.8 -
14/11:00pm 23.6 27.2 19.7 79 2.5 CALM 0 6 0 3 1013.1 1012.9 -
14/10:30pm 24.3 27.3 20.0 77 2.8 NW 4 9 2 5 1013.2 1013.0 -
14/10:00pm 24.8 27.4 20.5 77 2.8 NNW 7 11 4 6 1013.3 1013.1 -
14/09:30pm 25.2 27.2 20.7 76 3.0 NNW 11 19 6 10 1013.1 1012.9 -
14/09:00pm 25.5 26.7 20.7 75 3.1 NNW 15 20 8 11 1012.8 1012.6 -
14/08:30pm 26.0 27.2 20.6 72 3.5 NNW 15 22 8 12 1012.5 1012.3 -
14/08:00pm 27.4 28.5 18.9 59 5.5 NNW 11 17 6 9 1012.0 1011.8 -
14/07:30pm 28.7 27.3 15.6 45 8.1 N 17 - 9 - - 1010.9 -
14/07:00pm 29.2 27.3 15.3 42 8.5 N 19 30 10 16 1010.7 1010.5 -
14/06:30pm 31.6 28.1 8.6 24 12.8 N 17 28 9 15 1010.2 1010.0 -
14/06:00pm 32.8 28.1 7.6 21 13.9 NNE 22 33 12 18 1009.7 1009.5 0.0
14/05:30pm 33.8 29.9 7.0 19 14.7 NE 17 30 9 16 1009.5 1009.3 0.0
14/05:00pm 35.2 31.2 4.7 15 16.3 ENE 15 24 8 13 1009.2 1009.0 0.0
14/04:30pm 36.1 32.0 4.4 14 16.9 E 15 24 8 13 1009.1 1008.9 0.0
14/04:00pm 36.1 31.6 4.4 14 16.9 E 17 30 9 16 1009.0 1008.8 0.0
14/03:30pm 36.2 31.9 3.4 13 17.3 E 15 28 8 15 1009.2 1009.0 0.0
14/03:00pm 36.2 31.2 3.4 13 17.2 NE 19 30 10 16 1009.4 1009.2 0.0
14/02:30pm 37.2 32.5 3.1 12 18.0 E 17 28 9 15 1009.8 1009.6 0.0
14/02:00pm 36.3 30.7 1.2 11 17.8 ENE 20 33 11 18 1010.3 1010.1 0.0
14/01:30pm 36.6 31.6 1.4 11 18.0 ENE 17 33 9 18 1010.8 1010.6 0.0
14/01:00pm 36.0 31.1 2.1 12 17.4 ENE 17 33 9 18 1011.3 1011.1 0.0
14/12:30pm 35.5 30.2 2.9 13 16.9 ENE 20 35 11 19 1011.9 1011.7 0.0
14/12:00pm 35.2 30.0 3.7 14 16.5 E 20 35 11 19 1012.3 1012.1 0.0
14/11:30am 34.6 30.1 4.2 15 16.0 E 17 28 9 15 1012.9 1012.7 0.0
14/11:00am 33.2 28.4 5.7 18 14.7 ESE 20 39 11 21 1013.4 1013.2 0.0
14/10:30am 30.8 30.1 13.1 34 10.6 WSW 9 13 5 7 1013.7 1013.5 0.0
14/10:00am 29.3 29.1 14.7 41 8.9 S 9 15 5 8 1014.0 1013.8 0.0
14/09:30am 26.9 27.3 15.3 49 7.0 S 7 11 4 6 1014.2 1014.0 0.0
14/09:00am 25.0 25.8 16.4 59 5.3 SSE 7 9 4 5 1014.1 1013.9 0.0
14/08:30am 22.7 23.4 16.0 66 4.0 S 7 9 4 5 1014.0 1013.8 0.0
14/08:00am 19.2 20.9 16.2 83 1.8 S 2 6 1 3 1013.7 1013.5 0.0
14/07:30am 16.9 18.4 14.7 87 1.3 CALM 0 0 0 0 1013.5 1013.3 0.0
14/07:00am 16.9 18.4 14.7 87 1.3 CALM 0 0 0 0 1013.3 1013.1 0.0
14/06:30am 17.4 19.1 15.2 87 1.3 CALM 0 0 0 0 1013.0 1012.8 0.0
14/06:00am 17.0 18.4 14.5 85 1.4 CALM 0 0 0 0 1012.7 1012.5 0.0
14/05:30am 17.4 18.8 14.5 83 1.7 CALM 0 0 0 0 1012.4 1012.2 0.0
14/05:00am 17.6 18.7 14.7 83 1.7 S 2 7 1 4 1012.2 1012.0 0.0
14/04:30am 17.2 18.6 14.5 84 1.6 CALM 0 0 0 0 1011.9 1011.7 0.0
14/04:00am 17.2 17.6 14.7 85 1.4 S 6 7 3 4 1011.7 1011.5 0.0
14/03:30am 17.5 18.2 14.6 83 1.7 SSW 4 6 2 3 1011.7 1011.5 0.0
14/03:00am 17.7 19.3 15.0 84 1.6 CALM 0 0 0 0 1011.9 1011.7 0.0
14/02:30am 18.0 19.7 15.3 84 1.6 CALM 0 0 0 0 1012.0 1011.8 0.0
14/02:00am 18.3 20.1 15.4 83 1.7 CALM 0 0 0 0 1012.3 1012.1 0.0
14/01:30am 18.7 20.4 15.2 80 2.1 CALM 0 0 0 0 1012.5 1012.3 0.0
14/01:00am 19.1 20.9 15.6 80 2.1 CALM 0 0 0 0 1012.7 1012.5 0.0
14/12:30am 19.7 21.7 16.0 79 2.2 CALM 0 0 0 0 1013.0 1012.8 0.0

Other Formats:

Comma delimited format used in spreadsheet applications
http://www.bom.gov.au/fwo/IDD60801/IDD60801.94100.axf

JavaScript Object Notation format (JSON) in row-major order
http://www.bom.gov.au/fwo/IDD60801/IDD60801.94100.json